createdAt,value
2022-08-14T00:01:58.777Z,29.84
2022-08-14T00:04:32.067Z,29.83
2022-08-14T00:07:06.815Z,29.77
2022-08-14T00:09:39.897Z,29.80
2022-08-14T00:12:24.134Z,29.72
2022-08-14T00:14:55.039Z,29.66
2022-08-14T00:17:22.667Z,29.61
2022-08-14T00:19:51.801Z,29.53
2022-08-14T00:22:44.370Z,29.50
2022-08-14T00:25:10.622Z,29.54
2022-08-14T00:27:38.413Z,29.56
2022-08-14T00:30:08.546Z,29.43
2022-08-14T00:32:52.498Z,29.38
2022-08-14T00:35:36.850Z,29.30
2022-08-14T00:38:12.480Z,29.41
2022-08-14T00:40:39.842Z,29.54
2022-08-14T00:43:14.985Z,29.61
2022-08-14T00:45:42.900Z,29.64
2022-08-14T00:48:34.753Z,29.67
2022-08-14T00:51:04.861Z,29.55
2022-08-14T00:53:34.220Z,29.39
2022-08-14T00:56:01.421Z,29.30
2022-08-14T00:58:34.740Z,29.19
2022-08-14T01:01:07.330Z,29.10
2022-08-14T01:03:34.660Z,29.05
2022-08-14T01:06:02.024Z,29.00
2022-08-14T01:08:52.043Z,29.08
2022-08-14T01:11:31.499Z,29.04
2022-08-14T01:14:25.220Z,29.04
2022-08-14T01:16:53.124Z,29.04
2022-08-14T01:19:27.419Z,29.04
2022-08-14T01:22:26.908Z,29.07
2022-08-14T01:25:04.075Z,29.08
2022-08-14T01:27:56.826Z,29.09
2022-08-14T01:30:25.541Z,29.07
2022-08-14T01:32:53.660Z,29.09
2022-08-14T01:36:03.430Z,29.06
2022-08-14T01:38:10.271Z,28.99
2022-08-14T01:40:41.687Z,29.02
2022-08-14T01:43:11.495Z,28.98
2022-08-14T01:45:40.859Z,28.95
2022-08-14T01:48:13.293Z,28.89
2022-08-14T01:50:42.134Z,28.81
2022-08-14T01:53:11.099Z,28.81
2022-08-14T01:55:38.960Z,28.81
2022-08-14T01:58:19.354Z,28.73
2022-08-14T02:00:50.024Z,28.71
2022-08-14T02:03:17.299Z,28.73
2022-08-14T02:05:44.403Z,28.64
2022-08-14T02:08:12.981Z,28.60
2022-08-14T02:10:46.582Z,28.53
2022-08-14T02:13:16.941Z,28.48
2022-08-14T02:15:44.840Z,28.51
2022-08-14T02:18:15.303Z,28.47
2022-08-14T02:20:42.882Z,28.43
2022-08-14T02:23:11.398Z,28.40
2022-08-14T02:25:40.178Z,28.30
2022-08-14T02:28:23.959Z,28.28
2022-08-14T02:30:54.979Z,28.35
2022-08-14T02:33:22.614Z,28.31
2022-08-14T02:35:53.354Z,28.27
2022-08-14T02:38:30.204Z,28.24
2022-08-14T02:41:08.990Z,28.22
2022-08-14T02:43:46.490Z,28.20
2022-08-14T02:46:20.537Z,28.21
2022-08-14T02:49:03.986Z,28.15
2022-08-14T02:51:34.845Z,28.14
2022-08-14T02:54:05.679Z,28.18
2022-08-14T02:57:14.382Z,28.16
2022-08-14T02:59:24.878Z,28.08
2022-08-14T03:01:56.379Z,28.07
2022-08-14T03:04:25.294Z,28.07
2022-08-14T03:07:06.328Z,28.04
2022-08-14T03:10:25.142Z,28.06
2022-08-14T03:12:30.842Z,28.00
2022-08-14T03:15:00.999Z,27.98
2022-08-14T03:17:31.996Z,28.03
2022-08-14T03:20:11.049Z,28.07
2022-08-14T03:22:38.758Z,28.04
2022-08-14T03:25:09.984Z,28.03
2022-08-14T03:27:47.715Z,28.05
2022-08-14T03:30:15.841Z,28.04
2022-08-14T03:32:51.457Z,28.05
2022-08-14T03:35:18.818Z,28.15
2022-08-14T03:39:13.129Z,28.14
2022-08-14T03:40:34.720Z,28.07
2022-08-14T03:43:03.997Z,28.14
2022-08-14T03:45:35.524Z,28.14
2022-08-14T03:48:04.080Z,28.09
2022-08-14T03:50:38.319Z,28.10
2022-08-14T03:53:05.958Z,28.09
2022-08-14T03:55:34.758Z,28.10
2022-08-14T03:58:03.458Z,28.08
2022-08-14T04:00:43.107Z,28.13
2022-08-14T04:03:18.255Z,28.03
2022-08-14T04:05:51.000Z,28.07
2022-08-14T04:08:22.949Z,27.99
2022-08-14T04:11:01.261Z,28.01
2022-08-14T04:13:33.963Z,28.07
2022-08-14T04:16:04.787Z,28.02
2022-08-14T04:18:33.919Z,28.03
2022-08-14T04:21:01.700Z,28.08
2022-08-14T04:23:33.399Z,28.12
2022-08-14T04:26:08.283Z,28.12
2022-08-14T04:29:08.307Z,28.17
2022-08-14T04:32:57.640Z,28.15
2022-08-14T04:34:24.119Z,28.17
2022-08-14T04:36:55.007Z,28.10
2022-08-14T04:39:22.587Z,28.13
2022-08-14T04:41:50.839Z,28.18
2022-08-14T04:44:36.222Z,28.10
2022-08-14T04:47:04.797Z,28.17
2022-08-14T04:49:33.618Z,28.18
2022-08-14T04:52:15.532Z,28.16
2022-08-14T04:54:50.718Z,28.23
2022-08-14T04:57:17.958Z,28.20
2022-08-14T04:59:47.859Z,28.23
2022-08-14T05:02:15.051Z,28.26
2022-08-14T05:04:45.031Z,28.35
2022-08-14T05:07:12.820Z,28.33
2022-08-14T05:09:43.887Z,28.39
2022-08-14T05:13:12.694Z,28.34
2022-08-14T05:15:04.081Z,28.33
2022-08-14T05:17:43.821Z,28.36
2022-08-14T05:21:10.992Z,28.36
2022-08-14T05:22:59.398Z,28.56
2022-08-14T05:25:30.759Z,28.55
2022-08-14T05:28:16.153Z,28.58
2022-08-14T05:30:45.899Z,28.61
2022-08-14T05:33:14.639Z,28.77
2022-08-14T05:35:43.039Z,28.91
2022-08-14T05:38:30.660Z,28.95
2022-08-14T05:40:59.140Z,28.96
2022-08-14T05:43:40.833Z,29.04
2022-08-14T05:46:15.397Z,29.15
2022-08-14T05:48:43.538Z,29.31
2022-08-14T05:51:10.977Z,29.35
2022-08-14T05:53:42.402Z,29.34
2022-08-14T05:56:10.028Z,29.38
2022-08-14T05:58:41.051Z,29.41
2022-08-14T06:01:09.148Z,29.43
2022-08-14T06:03:40.114Z,29.54
2022-08-14T06:06:08.481Z,29.58
2022-08-14T06:08:41.297Z,29.55
2022-08-14T06:11:09.842Z,29.68
2022-08-14T06:13:45.415Z,29.67
2022-08-14T06:16:17.709Z,29.81
2022-08-14T06:18:51.777Z,29.88
2022-08-14T06:21:20.080Z,29.91
2022-08-14T06:23:49.292Z,29.96
2022-08-14T06:26:20.572Z,30.04
2022-08-14T06:28:52.111Z,30.12
2022-08-14T06:31:20.503Z,30.09
2022-08-14T06:35:02.970Z,30.14
2022-08-14T06:36:36.559Z,29.87
2022-08-14T06:39:04.219Z,29.99
2022-08-14T06:41:58.076Z,30.01
2022-08-14T06:44:32.394Z,30.02
2022-08-14T06:47:00.819Z,30.01
2022-08-14T06:49:30.178Z,29.97
2022-08-14T06:51:57.761Z,29.96
2022-08-14T06:54:31.184Z,29.90
2022-08-14T06:56:59.249Z,29.89
2022-08-14T06:59:26.505Z,29.81
2022-08-14T07:01:56.582Z,29.71
2022-08-14T07:04:24.470Z,29.61
2022-08-14T07:06:55.505Z,29.56
2022-08-14T07:09:25.779Z,29.42
2022-08-14T07:11:55.518Z,29.33
2022-08-14T07:14:23.598Z,29.32
2022-08-14T07:16:50.742Z,29.31
2022-08-14T07:19:20.987Z,29.39
2022-08-14T07:21:48.897Z,29.38
2022-08-14T07:24:21.959Z,28.99
2022-08-14T07:26:53.541Z,29.27
2022-08-14T07:29:24.045Z,29.32
2022-08-14T07:31:53.625Z,29.26
2022-08-14T07:34:36.547Z,28.99
2022-08-14T07:37:07.738Z,28.86
2022-08-14T07:39:38.897Z,29.19
2022-08-14T07:42:10.700Z,29.02
2022-08-14T07:44:46.503Z,29.15
2022-08-14T07:47:17.839Z,29.15
2022-08-14T07:49:59.222Z,29.14
2022-08-14T07:52:31.103Z,29.15
2022-08-14T07:55:01.358Z,29.21
2022-08-14T07:57:28.537Z,29.18
2022-08-14T07:59:55.740Z,29.18
2022-08-14T08:02:23.959Z,29.08
2022-08-14T08:04:54.350Z,29.02
2022-08-14T08:07:30.015Z,29.09
2022-08-14T08:10:02.658Z,29.20
2022-08-14T08:12:32.087Z,29.24
2022-08-14T08:15:02.900Z,29.07
2022-08-14T08:17:38.716Z,28.92
2022-08-14T08:20:16.854Z,29.03
2022-08-14T08:22:49.767Z,29.12
2022-08-14T08:25:25.132Z,29.15
2022-08-14T08:28:01.398Z,29.15
2022-08-14T08:30:37.420Z,29.26
2022-08-14T08:33:12.321Z,29.21
2022-08-14T08:35:47.106Z,29.18
2022-08-14T08:39:17.706Z,29.21
2022-08-14T08:41:11.105Z,29.14
2022-08-14T08:43:46.193Z,29.20
2022-08-14T08:46:21.621Z,29.23
2022-08-14T08:51:30.961Z,29.15
2022-08-14T08:54:04.142Z,29.28
2022-08-14T08:56:44.881Z,29.32
2022-08-14T08:59:27.327Z,29.38
2022-08-14T09:02:01.184Z,29.34
2022-08-14T09:04:36.059Z,29.40
2022-08-14T09:07:13.062Z,29.45
2022-08-14T09:09:54.019Z,29.44
2022-08-14T09:12:31.638Z,29.49
2022-08-14T09:15:01.855Z,29.45
2022-08-14T09:17:29.680Z,29.54
2022-08-14T09:19:57.743Z,29.61
2022-08-14T09:22:35.348Z,29.62
2022-08-14T09:25:07.380Z,29.64
2022-08-14T09:27:37.942Z,29.58
2022-08-14T09:30:30.744Z,29.61
2022-08-14T09:33:30.069Z,29.51
2022-08-14T09:36:18.529Z,29.37
2022-08-14T09:38:51.700Z,29.33
2022-08-14T09:42:20.151Z,29.29
2022-08-14T09:44:42.929Z,29.29
2022-08-14T09:47:14.630Z,29.37
2022-08-14T09:49:42.021Z,29.40
2022-08-14T09:52:32.834Z,29.50
2022-08-14T09:54:59.099Z,29.51
2022-08-14T09:57:37.523Z,29.58
2022-08-14T10:00:29.561Z,29.59
2022-08-14T10:02:58.435Z,29.67
2022-08-14T10:05:31.719Z,29.64
2022-08-14T10:07:59.107Z,29.67
2022-08-14T10:10:34.422Z,29.67
2022-08-14T10:13:04.041Z,29.58
2022-08-14T10:15:45.439Z,29.51
2022-08-14T10:18:18.183Z,29.43
2022-08-14T10:20:59.299Z,29.44
2022-08-14T10:23:33.764Z,29.36
2022-08-14T10:26:06.025Z,29.17
2022-08-14T10:29:03.522Z,29.39
2022-08-14T10:31:30.647Z,29.45
2022-08-14T10:34:14.068Z,29.40
2022-08-14T10:36:47.524Z,29.25
2022-08-14T10:39:20.022Z,29.29
2022-08-14T10:41:53.707Z,29.19
2022-08-14T10:44:24.059Z,29.23
2022-08-14T10:47:37.942Z,29.16
2022-08-14T10:49:44.721Z,29.10
2022-08-14T10:52:22.086Z,29.00
2022-08-14T10:54:49.340Z,28.75
2022-08-14T10:57:25.462Z,28.65
2022-08-14T10:59:56.520Z,28.31
2022-08-14T11:02:44.972Z,28.50
2022-08-14T11:05:18.201Z,28.47
2022-08-14T11:07:59.787Z,28.45
2022-08-14T11:10:40.871Z,28.43
2022-08-14T11:13:15.324Z,28.43
2022-08-14T11:15:43.171Z,28.40
2022-08-14T11:18:20.427Z,28.40
2022-08-14T11:21:00.221Z,28.43
2022-08-14T11:23:38.247Z,28.40
2022-08-14T11:26:10.381Z,28.43
2022-08-14T11:28:47.628Z,28.43
2022-08-14T11:31:20.539Z,28.43
2022-08-14T11:33:53.460Z,28.45
2022-08-14T11:36:24.299Z,28.56
2022-08-14T11:39:19.160Z,28.63
2022-08-14T11:42:01.420Z,28.74
2022-08-14T11:44:48.782Z,28.79
2022-08-14T11:47:20.781Z,28.86
2022-08-14T11:49:51.953Z,28.94
2022-08-14T11:52:19.604Z,28.96
2022-08-14T11:54:58.453Z,29.15
2022-08-14T11:57:26.658Z,29.61
2022-08-14T12:00:05.573Z,30.11
2022-08-14T12:03:03.113Z,30.39
2022-08-14T12:05:38.004Z,30.62
2022-08-14T12:08:13.461Z,30.60
2022-08-14T12:10:43.441Z,30.66
2022-08-14T12:13:12.549Z,30.57
2022-08-14T12:15:45.030Z,30.62
2022-08-14T12:18:19.343Z,30.75
2022-08-14T12:20:52.686Z,30.83
2022-08-14T12:23:23.282Z,30.84
2022-08-14T12:26:31.943Z,30.95
2022-08-14T12:28:59.313Z,31.04
2022-08-14T12:31:27.484Z,30.86
2022-08-14T12:34:10.143Z,30.87
2022-08-14T12:36:39.539Z,30.93
2022-08-14T12:39:19.912Z,30.81
2022-08-14T12:41:53.789Z,30.84
2022-08-14T12:44:31.341Z,30.27
2022-08-14T12:47:07.419Z,30.78
2022-08-14T12:49:34.801Z,30.88
2022-08-14T12:52:09.319Z,30.80
2022-08-14T12:54:57.577Z,30.68
2022-08-14T12:57:38.804Z,30.56
2022-08-14T13:00:23.079Z,30.56
2022-08-14T13:02:54.947Z,30.53
2022-08-14T13:05:27.480Z,30.50
2022-08-14T13:07:56.558Z,30.43
2022-08-14T13:10:52.062Z,30.39
2022-08-14T13:13:16.121Z,30.38
2022-08-14T13:15:44.603Z,30.31
2022-08-14T13:18:15.651Z,30.22
2022-08-14T13:20:51.353Z,30.24
2022-08-14T13:23:31.704Z,30.36
2022-08-14T13:26:01.137Z,30.28
2022-08-14T13:28:33.657Z,30.26
2022-08-14T13:31:02.979Z,30.25
2022-08-14T13:33:36.922Z,30.23
2022-08-14T13:36:09.842Z,30.21
2022-08-14T13:38:42.900Z,30.18
2022-08-14T13:41:11.028Z,30.03
2022-08-14T13:43:49.443Z,30.02
2022-08-14T13:46:27.947Z,30.07
2022-08-14T13:48:55.741Z,30.09
2022-08-14T13:51:35.701Z,29.99
2022-08-14T13:54:10.722Z,29.93
2022-08-14T13:56:40.922Z,29.90
2022-08-14T13:59:10.709Z,29.88
2022-08-14T14:01:43.422Z,29.88
2022-08-14T14:04:19.268Z,29.84
2022-08-14T14:06:49.421Z,29.83
2022-08-14T14:09:26.290Z,29.87
2022-08-14T14:12:00.462Z,29.88
2022-08-14T14:14:44.673Z,29.92
2022-08-14T14:17:13.143Z,29.99
2022-08-14T14:19:42.564Z,30.00
2022-08-14T14:22:12.820Z,29.96
2022-08-14T14:25:01.404Z,30.03
2022-08-14T14:27:40.584Z,30.03
2022-08-14T14:30:46.548Z,30.11
2022-08-14T14:33:04.352Z,30.17
2022-08-14T14:35:38.564Z,30.19
2022-08-14T14:38:09.021Z,30.21
2022-08-14T14:40:53.106Z,30.07
2022-08-14T14:43:25.401Z,30.17
2022-08-14T14:45:56.141Z,30.28
2022-08-14T14:48:28.454Z,30.37
2022-08-14T14:50:58.284Z,30.42
2022-08-14T14:53:27.081Z,30.47
2022-08-14T14:56:47.804Z,30.49
2022-08-14T14:58:46.050Z,30.47
2022-08-14T15:01:13.577Z,30.42
2022-08-14T15:03:41.200Z,30.23
2022-08-14T15:06:09.119Z,30.30
2022-08-14T15:08:57.047Z,30.40
2022-08-14T15:11:30.275Z,30.42
2022-08-14T15:13:58.581Z,30.42
2022-08-14T15:16:27.462Z,30.44
2022-08-14T15:18:55.004Z,30.42
2022-08-14T15:21:22.919Z,30.28
2022-08-14T15:23:50.225Z,30.15
2022-08-14T15:26:24.000Z,30.06
2022-08-14T15:29:03.141Z,29.93
2022-08-14T15:31:32.543Z,29.94
2022-08-14T15:34:45.806Z,30.06
2022-08-14T15:36:49.301Z,30.01
2022-08-14T15:39:17.186Z,29.88
2022-08-14T15:41:45.253Z,30.13
2022-08-14T15:44:25.474Z,30.26
2022-08-14T15:46:55.178Z,30.32
2022-08-14T15:49:22.641Z,30.32
2022-08-14T15:51:51.039Z,30.17
2022-08-14T15:54:21.881Z,30.11
2022-08-14T15:56:57.640Z,29.98
2022-08-14T15:59:28.001Z,29.20
2022-08-14T16:01:55.860Z,29.60
2022-08-14T16:04:23.811Z,29.64
2022-08-14T16:06:54.548Z,29.94
2022-08-14T16:09:22.576Z,29.71
2022-08-14T16:11:53.537Z,29.58
2022-08-14T16:14:21.454Z,29.36
2022-08-14T16:17:00.596Z,29.69
2022-08-14T16:19:30.250Z,29.61
2022-08-14T16:22:57.408Z,29.88
2022-08-14T16:25:02.570Z,29.74
2022-08-14T16:27:39.228Z,29.70
2022-08-14T16:30:11.541Z,29.97
2022-08-14T16:35:42.331Z,29.87
2022-08-14T16:38:46.519Z,29.86
2022-08-14T16:41:10.799Z,29.96
2022-08-14T16:43:40.422Z,30.18
2022-08-14T16:46:08.461Z,30.31
2022-08-14T16:48:57.980Z,30.32
2022-08-14T16:51:24.400Z,30.15
2022-08-14T16:53:52.379Z,30.20
2022-08-14T16:56:25.623Z,30.22
2022-08-14T16:59:07.359Z,29.96
2022-08-14T17:01:36.645Z,29.81
2022-08-14T17:04:07.881Z,30.10
2022-08-14T17:06:45.481Z,29.98
2022-08-14T17:09:28.322Z,29.64
2022-08-14T17:11:59.945Z,29.92
2022-08-14T17:14:48.925Z,29.89
2022-08-14T17:17:16.303Z,30.05
2022-08-14T17:19:44.999Z,30.02
2022-08-14T17:22:23.216Z,30.04
2022-08-14T17:25:03.138Z,29.78
2022-08-14T17:27:30.620Z,29.86
2022-08-14T17:29:58.044Z,29.96
2022-08-14T17:32:56.736Z,30.00
2022-08-14T17:35:26.783Z,30.01
2022-08-14T17:38:39.184Z,30.08
2022-08-14T17:41:17.119Z,30.18
2022-08-14T17:43:44.280Z,30.26
2022-08-14T17:46:37.860Z,30.35
2022-08-14T17:49:15.336Z,30.45
2022-08-14T17:51:58.841Z,30.54
2022-08-14T17:54:34.716Z,30.57
2022-08-14T17:57:10.484Z,30.57
2022-08-14T17:59:43.466Z,30.59
2022-08-14T18:02:16.822Z,30.55
2022-08-14T18:04:46.027Z,30.62
2022-08-14T18:08:00.218Z,30.66
2022-08-14T18:10:52.642Z,30.67
2022-08-14T18:12:55.518Z,30.65
2022-08-14T18:15:35.436Z,30.62
2022-08-14T18:18:08.837Z,30.58
2022-08-14T18:21:39.880Z,30.56
2022-08-14T18:23:26.702Z,30.55
2022-08-14T18:25:58.847Z,30.52
2022-08-14T18:28:50.877Z,30.49
2022-08-14T18:31:42.362Z,30.46
2022-08-14T18:34:32.102Z,30.44
2022-08-14T18:37:14.280Z,30.18
2022-08-14T18:40:02.354Z,30.03
2022-08-14T18:42:44.142Z,29.97
2022-08-14T18:45:15.416Z,29.99
2022-08-14T18:48:14.175Z,30.07
2022-08-14T18:50:31.900Z,30.09
2022-08-14T18:53:06.945Z,30.10
2022-08-14T18:55:53.742Z,29.92
2022-08-14T18:58:31.485Z,29.96
2022-08-14T19:01:04.703Z,29.95
2022-08-14T19:03:55.720Z,30.00
2022-08-14T19:06:47.040Z,29.97
2022-08-14T19:09:51.560Z,29.91
2022-08-14T19:12:56.684Z,29.88
2022-08-14T19:15:28.141Z,29.89
2022-08-14T19:18:14.893Z,29.87
2022-08-14T19:20:49.086Z,29.67
2022-08-14T19:23:42.540Z,29.77
2022-08-14T19:26:36.040Z,29.39
2022-08-14T19:29:38.250Z,29.62
2022-08-14T19:32:37.569Z,29.67
2022-08-14T19:35:14.953Z,29.73
2022-08-14T19:37:47.772Z,29.77
2022-08-14T19:40:29.541Z,29.81
2022-08-14T19:42:58.354Z,29.81
2022-08-14T19:45:28.000Z,29.82
2022-08-14T19:47:57.810Z,29.83
2022-08-14T19:50:37.935Z,29.83
2022-08-14T19:53:16.537Z,29.85
2022-08-14T19:55:58.570Z,29.88
2022-08-14T19:58:38.221Z,29.87
2022-08-14T20:01:36.966Z,29.86
2022-08-14T20:04:45.237Z,29.86
2022-08-14T20:06:56.480Z,29.63
2022-08-14T20:11:08.058Z,29.28
2022-08-14T20:12:28.889Z,28.89
2022-08-14T20:15:10.264Z,28.55
2022-08-14T20:17:40.302Z,28.34
2022-08-14T20:20:30.452Z,28.17
2022-08-14T20:23:01.910Z,27.95
2022-08-14T20:25:37.286Z,27.81
2022-08-14T20:28:29.537Z,27.68
2022-08-14T20:31:13.680Z,27.58
2022-08-14T20:34:03.228Z,27.43
2022-08-14T20:36:32.043Z,27.39
2022-08-14T20:38:59.826Z,27.35
2022-08-14T20:41:27.468Z,27.28
2022-08-14T20:43:58.596Z,27.22
2022-08-14T20:46:31.092Z,27.11
2022-08-14T20:49:00.859Z,27.08
2022-08-14T20:51:36.761Z,27.01
2022-08-14T20:54:06.603Z,26.97
2022-08-14T20:56:35.583Z,26.91
2022-08-14T20:59:17.552Z,26.81
2022-08-14T21:01:48.143Z,26.84
2022-08-14T21:04:27.220Z,26.75
2022-08-14T21:07:25.423Z,26.67
2022-08-14T21:10:06.620Z,26.63
2022-08-14T21:12:35.812Z,26.59
2022-08-14T21:15:11.148Z,26.51
2022-08-14T21:17:41.657Z,26.50
2022-08-14T21:20:25.404Z,26.52
2022-08-14T21:22:56.379Z,26.47
2022-08-14T21:25:24.277Z,26.44
2022-08-14T21:27:56.713Z,26.44
2022-08-14T21:30:41.829Z,26.40
2022-08-14T21:33:13.244Z,26.40
2022-08-14T21:35:41.886Z,26.33
2022-08-14T21:38:09.269Z,26.32
2022-08-14T21:40:51.532Z,26.29
2022-08-14T21:43:22.246Z,26.23
2022-08-14T21:45:53.924Z,26.17
2022-08-14T21:48:29.526Z,26.11
2022-08-14T21:51:01.047Z,26.07
2022-08-14T21:53:32.482Z,26.02
2022-08-14T21:56:00.400Z,26.10
2022-08-14T21:58:52.474Z,26.01
2022-08-14T22:01:14.694Z,25.95
2022-08-14T22:03:45.047Z,25.94
2022-08-14T22:06:19.486Z,25.91
2022-08-14T22:08:47.224Z,25.90
2022-08-14T22:11:21.091Z,25.93
2022-08-14T22:13:48.963Z,26.02
2022-08-14T22:16:59.946Z,26.06
2022-08-14T22:19:05.983Z,26.15
2022-08-14T22:21:37.884Z,26.18
2022-08-14T22:24:12.394Z,26.21
2022-08-14T22:26:59.622Z,26.20
2022-08-14T22:29:27.742Z,26.13
2022-08-14T22:31:54.962Z,26.52
2022-08-14T22:34:23.779Z,27.01
2022-08-14T22:36:51.342Z,27.37
2022-08-14T22:40:15.325Z,27.69
2022-08-14T22:42:21.315Z,27.98
2022-08-14T22:44:56.482Z,28.23
2022-08-14T22:47:25.315Z,28.40
2022-08-14T22:50:32.386Z,28.57
2022-08-14T22:52:49.554Z,28.70
2022-08-14T22:55:17.281Z,28.84
2022-08-14T22:57:44.622Z,28.92
2022-08-14T23:00:17.113Z,28.94
2022-08-14T23:02:45.305Z,29.02
2022-08-14T23:05:15.267Z,29.03
2022-08-14T23:08:58.250Z,29.08
2022-08-14T23:10:32.146Z,29.12
2022-08-14T23:13:04.367Z,29.14
2022-08-14T23:15:31.882Z,29.18
2022-08-14T23:17:59.751Z,29.17
2022-08-14T23:20:32.721Z,29.24
2022-08-14T23:23:00.303Z,29.24
2022-08-14T23:25:57.977Z,29.25
2022-08-14T23:28:33.460Z,29.27
2022-08-14T23:31:05.764Z,29.25
2022-08-14T23:33:34.791Z,29.27
2022-08-14T23:36:04.540Z,29.25
2022-08-14T23:38:52.443Z,29.25
2022-08-14T23:41:21.979Z,29.24
2022-08-14T23:43:51.701Z,29.24
2022-08-14T23:46:21.139Z,29.22
2022-08-14T23:48:48.579Z,29.23
2022-08-14T23:51:20.106Z,29.23
2022-08-14T23:53:51.450Z,29.06
2022-08-14T23:56:31.726Z,28.84
2022-08-14T23:59:01.335Z,28.56
